sensor_id;sensor_type;location;lat;lon;timestamp;P1;durP1;ratioP1;P2;durP2;ratioP2
75997;SDS011;64685;48.762;44.822;2023-03-01T00:01:18;15.82;;;5.47;;
75997;SDS011;64685;48.762;44.822;2023-03-01T00:06:23;14.05;;;5.40;;
75997;SDS011;64685;48.762;44.822;2023-03-01T00:11:27;17.95;;;6.18;;
75997;SDS011;64685;48.762;44.822;2023-03-01T00:16:35;13.63;;;5.32;;
75997;SDS011;64685;48.762;44.822;2023-03-01T00:21:41;13.82;;;5.78;;
75997;SDS011;64685;48.762;44.822;2023-03-01T00:26:44;12.70;;;4.82;;
75997;SDS011;64685;48.762;44.822;2023-03-01T00:31:46;15.57;;;6.05;;
75997;SDS011;64685;48.762;44.822;2023-03-01T00:36:49;14.13;;;5.55;;
75997;SDS011;64685;48.762;44.822;2023-03-01T00:41:51;15.88;;;5.72;;
75997;SDS011;64685;48.762;44.822;2023-03-01T00:46:54;14.23;;;4.72;;
75997;SDS011;64685;48.762;44.822;2023-03-01T00:51:57;11.43;;;4.72;;
75997;SDS011;64685;48.762;44.822;2023-03-01T00:56:59;7.82;;;3.22;;
75997;SDS011;64685;48.762;44.822;2023-03-01T01:02:02;14.93;;;5.30;;
75997;SDS011;64685;48.762;44.822;2023-03-01T01:07:04;14.25;;;5.78;;
75997;SDS011;64685;48.762;44.822;2023-03-01T01:12:07;14.50;;;5.40;;
75997;SDS011;64685;48.762;44.822;2023-03-01T01:17:10;16.80;;;6.63;;
75997;SDS011;64685;48.762;44.822;2023-03-01T01:22:12;16.60;;;6.30;;
75997;SDS011;64685;48.762;44.822;2023-03-01T01:27:15;12.70;;;5.90;;
75997;SDS011;64685;48.762;44.822;2023-03-01T01:32:17;18.45;;;6.85;;
75997;SDS011;64685;48.762;44.822;2023-03-01T01:37:20;17.88;;;7.40;;
75997;SDS011;64685;48.762;44.822;2023-03-01T01:42:23;15.65;;;6.25;;
75997;SDS011;64685;48.762;44.822;2023-03-01T01:47:25;19.63;;;8.13;;
75997;SDS011;64685;48.762;44.822;2023-03-01T01:52:32;17.75;;;7.03;;
75997;SDS011;64685;48.762;44.822;2023-03-01T01:57:48;18.33;;;7.63;;
75997;SDS011;64685;48.762;44.822;2023-03-01T02:03:10;17.85;;;7.15;;
75997;SDS011;64685;48.762;44.822;2023-03-01T02:08:20;19.73;;;6.75;;
75997;SDS011;64685;48.762;44.822;2023-03-01T02:13:25;17.80;;;6.82;;
75997;SDS011;64685;48.762;44.822;2023-03-01T02:18:28;17.98;;;6.50;;
75997;SDS011;64685;48.762;44.822;2023-03-01T02:23:31;16.55;;;6.13;;
75997;SDS011;64685;48.762;44.822;2023-03-01T02:28:35;14.02;;;5.47;;
75997;SDS011;64685;48.762;44.822;2023-03-01T02:33:40;11.45;;;5.07;;
75997;SDS011;64685;48.762;44.822;2023-03-01T02:38:44;15.85;;;5.53;;
75997;SDS011;64685;48.762;44.822;2023-03-01T02:43:48;14.20;;;5.22;;
75997;SDS011;64685;48.762;44.822;2023-03-01T02:48:53;9.38;;;4.00;;
75997;SDS011;64685;48.762;44.822;2023-03-01T02:54:08;8.55;;;3.33;;
75997;SDS011;64685;48.762;44.822;2023-03-01T02:59:29;9.85;;;4.32;;
75997;SDS011;64685;48.762;44.822;2023-03-01T03:04:42;10.48;;;4.05;;
75997;SDS011;64685;48.762;44.822;2023-03-01T03:09:45;12.32;;;4.55;;
75997;SDS011;64685;48.762;44.822;2023-03-01T03:14:47;11.23;;;4.40;;
75997;SDS011;64685;48.762;44.822;2023-03-01T03:19:50;12.85;;;5.55;;
75997;SDS011;64685;48.762;44.822;2023-03-01T03:24:53;13.18;;;5.50;;
75997;SDS011;64685;48.762;44.822;2023-03-01T03:29:56;11.38;;;4.95;;
75997;SDS011;64685;48.762;44.822;2023-03-01T03:34:58;12.23;;;4.60;;
75997;SDS011;64685;48.762;44.822;2023-03-01T03:40:01;11.20;;;5.05;;
75997;SDS011;64685;48.762;44.822;2023-03-01T03:45:04;9.32;;;5.10;;
75997;SDS011;64685;48.762;44.822;2023-03-01T03:50:07;12.75;;;4.78;;
75997;SDS011;64685;48.762;44.822;2023-03-01T03:55:11;10.75;;;4.47;;
75997;SDS011;64685;48.762;44.822;2023-03-01T04:00:14;10.75;;;3.97;;
75997;SDS011;64685;48.762;44.822;2023-03-01T04:05:17;13.73;;;4.70;;
75997;SDS011;64685;48.762;44.822;2023-03-01T04:10:20;12.75;;;4.53;;
75997;SDS011;64685;48.762;44.822;2023-03-01T04:15:23;10.95;;;4.43;;
75997;SDS011;64685;48.762;44.822;2023-03-01T04:20:28;13.25;;;5.03;;
75997;SDS011;64685;48.762;44.822;2023-03-01T04:25:32;12.68;;;4.88;;
75997;SDS011;64685;48.762;44.822;2023-03-01T04:30:35;12.93;;;4.72;;
75997;SDS011;64685;48.762;44.822;2023-03-01T04:35:39;12.13;;;4.30;;
75997;SDS011;64685;48.762;44.822;2023-03-01T04:40:42;11.38;;;4.93;;
75997;SDS011;64685;48.762;44.822;2023-03-01T04:45:45;12.30;;;4.65;;
75997;SDS011;64685;48.762;44.822;2023-03-01T04:50:47;13.02;;;5.05;;
75997;SDS011;64685;48.762;44.822;2023-03-01T04:55:50;15.30;;;5.78;;
75997;SDS011;64685;48.762;44.822;2023-03-01T05:00:53;12.55;;;5.18;;
75997;SDS011;64685;48.762;44.822;2023-03-01T05:05:58;12.07;;;4.97;;
75997;SDS011;64685;48.762;44.822;2023-03-01T05:11:01;12.85;;;5.65;;
75997;SDS011;64685;48.762;44.822;2023-03-01T05:16:04;14.15;;;5.95;;
75997;SDS011;64685;48.762;44.822;2023-03-01T05:21:09;13.18;;;6.03;;
75997;SDS011;64685;48.762;44.822;2023-03-01T05:26:14;15.73;;;6.53;;
75997;SDS011;64685;48.762;44.822;2023-03-01T05:31:34;15.45;;;6.80;;
75997;SDS011;64685;48.762;44.822;2023-03-01T05:36:37;12.68;;;6.07;;
75997;SDS011;64685;48.762;44.822;2023-03-01T05:41:40;18.42;;;7.43;;
75997;SDS011;64685;48.762;44.822;2023-03-01T05:46:42;17.45;;;7.28;;
75997;SDS011;64685;48.762;44.822;2023-03-01T05:51:49;14.95;;;7.00;;
75997;SDS011;64685;48.762;44.822;2023-03-01T05:56:53;15.23;;;6.53;;
75997;SDS011;64685;48.762;44.822;2023-03-01T06:01:55;14.98;;;7.45;;
75997;SDS011;64685;48.762;44.822;2023-03-01T06:06:58;14.00;;;6.20;;
75997;SDS011;64685;48.762;44.822;2023-03-01T06:12:00;14.07;;;5.93;;
75997;SDS011;64685;48.762;44.822;2023-03-01T06:17:03;15.13;;;7.03;;
75997;SDS011;64685;48.762;44.822;2023-03-01T06:22:05;15.75;;;7.32;;
75997;SDS011;64685;48.762;44.822;2023-03-01T06:27:08;14.40;;;6.15;;
75997;SDS011;64685;48.762;44.822;2023-03-01T06:32:10;13.68;;;6.03;;
75997;SDS011;64685;48.762;44.822;2023-03-01T06:37:13;13.73;;;6.63;;
75997;SDS011;64685;48.762;44.822;2023-03-01T06:42:15;13.30;;;5.57;;
75997;SDS011;64685;48.762;44.822;2023-03-01T06:47:18;15.27;;;6.53;;
75997;SDS011;64685;48.762;44.822;2023-03-01T06:52:21;15.65;;;6.20;;
75997;SDS011;64685;48.762;44.822;2023-03-01T06:57:23;17.42;;;7.50;;
75997;SDS011;64685;48.762;44.822;2023-03-01T07:02:26;14.00;;;6.80;;
75997;SDS011;64685;48.762;44.822;2023-03-01T07:07:28;13.50;;;5.72;;
75997;SDS011;64685;48.762;44.822;2023-03-01T07:12:31;14.95;;;5.80;;
75997;SDS011;64685;48.762;44.822;2023-03-01T07:17:33;17.85;;;6.15;;
75997;SDS011;64685;48.762;44.822;2023-03-01T07:22:35;14.80;;;6.55;;
75997;SDS011;64685;48.762;44.822;2023-03-01T07:27:38;13.77;;;6.65;;
75997;SDS011;64685;48.762;44.822;2023-03-01T07:32:40;13.48;;;6.82;;
75997;SDS011;64685;48.762;44.822;2023-03-01T07:37:43;12.68;;;6.28;;
75997;SDS011;64685;48.762;44.822;2023-03-01T07:42:46;14.25;;;6.28;;
75997;SDS011;64685;48.762;44.822;2023-03-01T07:47:49;15.23;;;7.20;;
75997;SDS011;64685;48.762;44.822;2023-03-01T07:52:53;15.15;;;6.38;;
75997;SDS011;64685;48.762;44.822;2023-03-01T07:57:56;13.80;;;6.55;;
75997;SDS011;64685;48.762;44.822;2023-03-01T08:02:59;12.20;;;5.45;;
75997;SDS011;64685;48.762;44.822;2023-03-01T08:08:05;13.93;;;5.93;;
75997;SDS011;64685;48.762;44.822;2023-03-01T08:13:09;13.38;;;5.13;;
75997;SDS011;64685;48.762;44.822;2023-03-01T08:18:11;13.57;;;6.07;;
75997;SDS011;64685;48.762;44.822;2023-03-01T08:23:15;14.45;;;5.78;;
75997;SDS011;64685;48.762;44.822;2023-03-01T08:28:18;13.27;;;5.65;;
75997;SDS011;64685;48.762;44.822;2023-03-01T08:33:20;11.38;;;5.40;;
75997;SDS011;64685;48.762;44.822;2023-03-01T08:38:23;12.20;;;5.93;;
75997;SDS011;64685;48.762;44.822;2023-03-01T08:43:25;12.43;;;5.30;;
75997;SDS011;64685;48.762;44.822;2023-03-01T08:48:28;16.80;;;6.65;;
75997;SDS011;64685;48.762;44.822;2023-03-01T08:53:31;11.75;;;5.05;;
75997;SDS011;64685;48.762;44.822;2023-03-01T08:58:33;13.52;;;5.95;;
75997;SDS011;64685;48.762;44.822;2023-03-01T09:03:36;15.60;;;6.60;;
75997;SDS011;64685;48.762;44.822;2023-03-01T09:08:41;12.93;;;5.50;;
75997;SDS011;64685;48.762;44.822;2023-03-01T09:13:46;10.88;;;4.85;;
75997;SDS011;64685;48.762;44.822;2023-03-01T09:18:50;12.57;;;5.82;;
75997;SDS011;64685;48.762;44.822;2023-03-01T09:23:55;12.77;;;6.13;;
75997;SDS011;64685;48.762;44.822;2023-03-01T09:28:59;11.82;;;4.97;;
75997;SDS011;64685;48.762;44.822;2023-03-01T09:34:02;15.10;;;5.78;;
75997;SDS011;64685;48.762;44.822;2023-03-01T09:39:04;13.50;;;5.40;;
75997;SDS011;64685;48.762;44.822;2023-03-01T09:44:27;13.02;;;4.80;;
75997;SDS011;64685;48.762;44.822;2023-03-01T09:49:33;12.27;;;4.88;;
75997;SDS011;64685;48.762;44.822;2023-03-01T09:54:37;11.25;;;4.15;;
75997;SDS011;64685;48.762;44.822;2023-03-01T10:10:39;11.88;;;5.13;;
75997;SDS011;64685;48.762;44.822;2023-03-01T10:16:01;17.05;;;6.28;;
75997;SDS011;64685;48.762;44.822;2023-03-01T10:21:14;11.57;;;4.85;;
75997;SDS011;64685;48.762;44.822;2023-03-01T10:31:51;15.68;;;4.75;;
75997;SDS011;64685;48.762;44.822;2023-03-01T10:36:56;10.30;;;4.47;;
75997;SDS011;64685;48.762;44.822;2023-03-01T10:42:03;15.05;;;6.13;;
75997;SDS011;64685;48.762;44.822;2023-03-01T10:47:26;13.80;;;6.10;;
75997;SDS011;64685;48.762;44.822;2023-03-01T10:52:34;12.63;;;5.65;;
75997;SDS011;64685;48.762;44.822;2023-03-01T10:57:38;15.82;;;6.38;;
75997;SDS011;64685;48.762;44.822;2023-03-01T11:07:56;14.15;;;5.55;;
75997;SDS011;64685;48.762;44.822;2023-03-01T11:13:07;11.88;;;5.32;;
75997;SDS011;64685;48.762;44.822;2023-03-01T11:18:22;12.45;;;6.15;;
75997;SDS011;64685;48.762;44.822;2023-03-01T11:23:41;14.10;;;5.75;;
75997;SDS011;64685;48.762;44.822;2023-03-01T11:28:49;13.57;;;6.30;;
75997;SDS011;64685;48.762;44.822;2023-03-01T11:34:58;12.98;;;4.80;;
75997;SDS011;64685;48.762;44.822;2023-03-01T11:39:39;11.40;;;5.75;;
75997;SDS011;64685;48.762;44.822;2023-03-01T11:44:54;13.10;;;6.30;;
75997;SDS011;64685;48.762;44.822;2023-03-01T11:50:20;15.68;;;6.75;;
75997;SDS011;64685;48.762;44.822;2023-03-01T12:01:20;15.05;;;6.15;;
75997;SDS011;64685;48.762;44.822;2023-03-01T12:06:37;15.45;;;7.07;;
75997;SDS011;64685;48.762;44.822;2023-03-01T12:11:56;15.27;;;6.70;;
75997;SDS011;64685;48.762;44.822;2023-03-01T12:22:55;16.75;;;7.85;;
75997;SDS011;64685;48.762;44.822;2023-03-01T12:33:55;15.95;;;7.55;;
75997;SDS011;64685;48.762;44.822;2023-03-01T12:39:04;17.58;;;7.35;;
75997;SDS011;64685;48.762;44.822;2023-03-01T12:49:50;18.63;;;8.15;;
75997;SDS011;64685;48.762;44.822;2023-03-01T12:55:00;19.70;;;8.15;;
75997;SDS011;64685;48.762;44.822;2023-03-01T13:05:57;21.33;;;8.55;;
75997;SDS011;64685;48.762;44.822;2023-03-01T13:11:05;15.50;;;7.68;;
75997;SDS011;64685;48.762;44.822;2023-03-01T13:21:31;18.45;;;8.82;;
75997;SDS011;64685;48.762;44.822;2023-03-01T13:27:08;18.13;;;7.57;;
75997;SDS011;64685;48.762;44.822;2023-03-01T13:32:06;16.13;;;7.80;;
75997;SDS011;64685;48.762;44.822;2023-03-01T13:37:24;15.45;;;7.40;;
75997;SDS011;64685;48.762;44.822;2023-03-01T13:42:39;16.35;;;7.57;;
75997;SDS011;64685;48.762;44.822;2023-03-01T13:52:57;18.40;;;7.95;;
75997;SDS011;64685;48.762;44.822;2023-03-01T13:58:03;21.85;;;8.23;;
75997;SDS011;64685;48.762;44.822;2023-03-01T14:03:17;20.42;;;8.90;;
75997;SDS011;64685;48.762;44.822;2023-03-01T14:08:22;17.30;;;7.72;;
75997;SDS011;64685;48.762;44.822;2023-03-01T14:13:30;16.75;;;7.80;;
75997;SDS011;64685;48.762;44.822;2023-03-01T14:18:47;15.88;;;7.95;;
75997;SDS011;64685;48.762;44.822;2023-03-01T14:24:00;17.42;;;8.07;;
75997;SDS011;64685;48.762;44.822;2023-03-01T14:29:03;14.85;;;6.60;;
75997;SDS011;64685;48.762;44.822;2023-03-01T14:34:05;16.90;;;6.35;;
75997;SDS011;64685;48.762;44.822;2023-03-01T14:39:16;16.00;;;6.93;;
75997;SDS011;64685;48.762;44.822;2023-03-01T14:44:25;15.60;;;6.50;;
75997;SDS011;64685;48.762;44.822;2023-03-01T14:49:29;14.73;;;6.72;;
75997;SDS011;64685;48.762;44.822;2023-03-01T14:54:42;16.73;;;7.15;;
75997;SDS011;64685;48.762;44.822;2023-03-01T14:59:48;14.05;;;6.38;;
75997;SDS011;64685;48.762;44.822;2023-03-01T15:04:54;13.80;;;6.47;;
75997;SDS011;64685;48.762;44.822;2023-03-01T15:10:05;15.50;;;6.65;;
75997;SDS011;64685;48.762;44.822;2023-03-01T15:15:19;15.48;;;6.68;;
75997;SDS011;64685;48.762;44.822;2023-03-01T15:20:26;18.70;;;7.75;;
75997;SDS011;64685;48.762;44.822;2023-03-01T15:25:32;14.90;;;5.57;;
75997;SDS011;64685;48.762;44.822;2023-03-01T15:30:35;15.93;;;6.78;;
75997;SDS011;64685;48.762;44.822;2023-03-01T15:35:43;18.77;;;8.05;;
75997;SDS011;64685;48.762;44.822;2023-03-01T15:40:49;17.05;;;6.85;;
75997;SDS011;64685;48.762;44.822;2023-03-01T15:45:56;17.35;;;7.15;;
75997;SDS011;64685;48.762;44.822;2023-03-01T15:51:03;15.15;;;6.13;;
75997;SDS011;64685;48.762;44.822;2023-03-01T15:56:05;15.20;;;6.80;;
75997;SDS011;64685;48.762;44.822;2023-03-01T16:01:13;20.08;;;7.68;;
75997;SDS011;64685;48.762;44.822;2023-03-01T16:06:17;17.42;;;7.38;;
75997;SDS011;64685;48.762;44.822;2023-03-01T16:11:19;16.80;;;7.13;;
75997;SDS011;64685;48.762;44.822;2023-03-01T16:16:22;14.45;;;7.28;;
75997;SDS011;64685;48.762;44.822;2023-03-01T16:21:25;17.20;;;7.28;;
75997;SDS011;64685;48.762;44.822;2023-03-01T16:26:28;17.17;;;6.95;;
75997;SDS011;64685;48.762;44.822;2023-03-01T16:31:31;17.08;;;7.78;;
75997;SDS011;64685;48.762;44.822;2023-03-01T16:36:34;16.25;;;7.60;;
75997;SDS011;64685;48.762;44.822;2023-03-01T16:41:36;18.38;;;7.13;;
75997;SDS011;64685;48.762;44.822;2023-03-01T16:46:39;11.90;;;2.13;;
75997;SDS011;64685;48.762;44.822;2023-03-01T16:51:44;5.88;;;1.55;;
75997;SDS011;64685;48.762;44.822;2023-03-01T16:56:47;5.40;;;1.30;;
75997;SDS011;64685;48.762;44.822;2023-03-01T17:01:49;2.90;;;0.85;;
75997;SDS011;64685;48.762;44.822;2023-03-01T17:06:51;3.55;;;0.70;;
75997;SDS011;64685;48.762;44.822;2023-03-01T17:11:54;3.92;;;0.80;;
75997;SDS011;64685;48.762;44.822;2023-03-01T17:16:56;3.83;;;0.68;;
75997;SDS011;64685;48.762;44.822;2023-03-01T17:22:02;3.65;;;0.73;;
75997;SDS011;64685;48.762;44.822;2023-03-01T17:27:05;3.08;;;1.05;;
75997;SDS011;64685;48.762;44.822;2023-03-01T17:32:08;2.72;;;0.88;;
75997;SDS011;64685;48.762;44.822;2023-03-01T17:37:11;2.22;;;0.77;;
75997;SDS011;64685;48.762;44.822;2023-03-01T17:42:13;4.97;;;1.48;;
75997;SDS011;64685;48.762;44.822;2023-03-01T17:47:16;5.43;;;1.77;;
75997;SDS011;64685;48.762;44.822;2023-03-01T17:52:18;10.10;;;3.17;;
75997;SDS011;64685;48.762;44.822;2023-03-01T18:02:26;4.50;;;1.85;;
75997;SDS011;64685;48.762;44.822;2023-03-01T18:07:29;4.50;;;1.38;;
75997;SDS011;64685;48.762;44.822;2023-03-01T18:12:32;0.77;;;0.45;;
75997;SDS011;64685;48.762;44.822;2023-03-01T18:17:34;5.35;;;1.10;;
75997;SDS011;64685;48.762;44.822;2023-03-01T18:22:37;2.90;;;0.77;;
75997;SDS011;64685;48.762;44.822;2023-03-01T18:27:40;2.40;;;0.60;;
75997;SDS011;64685;48.762;44.822;2023-03-01T18:32:42;17.25;;;1.35;;
75997;SDS011;64685;48.762;44.822;2023-03-01T18:37:45;2.53;;;1.02;;
75997;SDS011;64685;48.762;44.822;2023-03-01T18:42:48;3.38;;;0.95;;
75997;SDS011;64685;48.762;44.822;2023-03-01T18:47:50;5.63;;;0.90;;
75997;SDS011;64685;48.762;44.822;2023-03-01T18:52:53;3.35;;;1.25;;
75997;SDS011;64685;48.762;44.822;2023-03-01T18:57:56;3.88;;;1.13;;
75997;SDS011;64685;48.762;44.822;2023-03-01T19:02:58;4.07;;;1.00;;
75997;SDS011;64685;48.762;44.822;2023-03-01T19:08:04;3.28;;;0.98;;
75997;SDS011;64685;48.762;44.822;2023-03-01T19:13:07;2.25;;;0.93;;
75997;SDS011;64685;48.762;44.822;2023-03-01T19:18:09;3.53;;;1.00;;
75997;SDS011;64685;48.762;44.822;2023-03-01T19:23:12;3.35;;;1.85;;
75997;SDS011;64685;48.762;44.822;2023-03-01T19:28:14;4.95;;;1.98;;
75997;SDS011;64685;48.762;44.822;2023-03-01T19:33:17;6.15;;;1.52;;
75997;SDS011;64685;48.762;44.822;2023-03-01T19:38:19;6.35;;;1.55;;
75997;SDS011;64685;48.762;44.822;2023-03-01T19:43:22;4.82;;;1.48;;
75997;SDS011;64685;48.762;44.822;2023-03-01T19:48:25;7.38;;;2.10;;
75997;SDS011;64685;48.762;44.822;2023-03-01T19:53:27;7.60;;;1.70;;
75997;SDS011;64685;48.762;44.822;2023-03-01T19:58:31;8.23;;;1.95;;
75997;SDS011;64685;48.762;44.822;2023-03-01T20:03:34;3.67;;;1.50;;
75997;SDS011;64685;48.762;44.822;2023-03-01T20:08:37;8.32;;;2.08;;
75997;SDS011;64685;48.762;44.822;2023-03-01T20:13:39;7.05;;;1.90;;
75997;SDS011;64685;48.762;44.822;2023-03-01T20:18:42;7.75;;;1.77;;
75997;SDS011;64685;48.762;44.822;2023-03-01T20:23:45;6.57;;;1.75;;
75997;SDS011;64685;48.762;44.822;2023-03-01T20:28:49;12.63;;;2.45;;
75997;SDS011;64685;48.762;44.822;2023-03-01T20:33:53;3.78;;;1.45;;
75997;SDS011;64685;48.762;44.822;2023-03-01T20:38:56;5.65;;;1.48;;
75997;SDS011;64685;48.762;44.822;2023-03-01T20:43:59;6.68;;;1.67;;
75997;SDS011;64685;48.762;44.822;2023-03-01T20:49:02;5.97;;;1.90;;
75997;SDS011;64685;48.762;44.822;2023-03-01T20:54:05;6.20;;;1.77;;
75997;SDS011;64685;48.762;44.822;2023-03-01T20:59:09;3.97;;;1.27;;
75997;SDS011;64685;48.762;44.822;2023-03-01T21:04:12;5.20;;;1.85;;
75997;SDS011;64685;48.762;44.822;2023-03-01T21:09:15;7.90;;;2.08;;
75997;SDS011;64685;48.762;44.822;2023-03-01T21:14:18;4.68;;;2.00;;
75997;SDS011;64685;48.762;44.822;2023-03-01T21:19:22;5.05;;;1.92;;
75997;SDS011;64685;48.762;44.822;2023-03-01T21:24:26;6.30;;;2.40;;
75997;SDS011;64685;48.762;44.822;2023-03-01T21:29:29;3.03;;;1.20;;
75997;SDS011;64685;48.762;44.822;2023-03-01T21:34:32;6.82;;;1.13;;
75997;SDS011;64685;48.762;44.822;2023-03-01T21:39:35;3.75;;;1.17;;
75997;SDS011;64685;48.762;44.822;2023-03-01T21:44:37;2.88;;;0.73;;
75997;SDS011;64685;48.762;44.822;2023-03-01T21:49:40;5.65;;;1.48;;
75997;SDS011;64685;48.762;44.822;2023-03-01T21:54:43;2.22;;;0.73;;
75997;SDS011;64685;48.762;44.822;2023-03-01T21:59:45;6.03;;;1.10;;
75997;SDS011;64685;48.762;44.822;2023-03-01T22:04:50;2.45;;;0.80;;
75997;SDS011;64685;48.762;44.822;2023-03-01T22:09:58;3.35;;;0.80;;
75997;SDS011;64685;48.762;44.822;2023-03-01T22:15:01;2.78;;;0.90;;
75997;SDS011;64685;48.762;44.822;2023-03-01T22:20:04;4.43;;;0.80;;
75997;SDS011;64685;48.762;44.822;2023-03-01T22:25:08;1.35;;;0.65;;
75997;SDS011;64685;48.762;44.822;2023-03-01T22:30:11;3.88;;;0.85;;
75997;SDS011;64685;48.762;44.822;2023-03-01T22:35:14;1.65;;;0.68;;
75997;SDS011;64685;48.762;44.822;2023-03-01T22:40:17;1.20;;;0.63;;
75997;SDS011;64685;48.762;44.822;2023-03-01T22:45:19;1.15;;;0.43;;
75997;SDS011;64685;48.762;44.822;2023-03-01T22:50:22;4.28;;;1.15;;
75997;SDS011;64685;48.762;44.822;2023-03-01T22:55:25;2.67;;;0.70;;
75997;SDS011;64685;48.762;44.822;2023-03-01T23:00:28;6.50;;;0.88;;
75997;SDS011;64685;48.762;44.822;2023-03-01T23:05:31;3.85;;;0.80;;
75997;SDS011;64685;48.762;44.822;2023-03-01T23:10:33;3.33;;;0.85;;
75997;SDS011;64685;48.762;44.822;2023-03-01T23:15:41;4.60;;;0.80;;
75997;SDS011;64685;48.762;44.822;2023-03-01T23:20:45;1.98;;;0.80;;
75997;SDS011;64685;48.762;44.822;2023-03-01T23:25:51;3.33;;;0.95;;
75997;SDS011;64685;48.762;44.822;2023-03-01T23:30:58;4.28;;;1.00;;
75997;SDS011;64685;48.762;44.822;2023-03-01T23:36:05;1.83;;;0.77;;
75997;SDS011;64685;48.762;44.822;2023-03-01T23:41:09;2.17;;;0.90;;
75997;SDS011;64685;48.762;44.822;2023-03-01T23:46:14;2.20;;;0.57;;
75997;SDS011;64685;48.762;44.822;2023-03-01T23:51:17;5.05;;;1.60;;
75997;SDS011;64685;48.762;44.822;2023-03-01T23:56:21;2.20;;;0.82;;
